createdAt,value
2022-11-27T00:01:40.818Z,99733.00
2022-11-27T00:04:37.976Z,99727.81
2022-11-27T00:07:25.717Z,99725.19
2022-11-27T00:10:14.241Z,99721.72
2022-11-27T00:13:14.049Z,99718.25
2022-11-27T00:16:08.071Z,99712.47
2022-11-27T00:18:55.908Z,99699.38
2022-11-27T00:22:05.938Z,99687.84
2022-11-27T00:24:53.835Z,99685.22
2022-11-27T00:27:53.205Z,99687.22
2022-11-27T00:31:11.278Z,99685.50
2022-11-27T00:37:08.286Z,99677.50
2022-11-27T00:40:02.873Z,99680.03
2022-11-27T00:43:13.746Z,99675.66
2022-11-27T00:46:28.058Z,99679.72
2022-11-27T00:52:25.707Z,99670.16
2022-11-27T00:55:19.110Z,99672.97
2022-11-27T00:58:07.095Z,99672.34
2022-11-27T01:00:59.854Z,99669.19
2022-11-27T01:03:49.884Z,99666.31
2022-11-27T01:06:39.074Z,99673.91
2022-11-27T01:10:26.287Z,99669.50
2022-11-27T01:12:51.776Z,99669.22
2022-11-27T01:15:42.743Z,99662.16
2022-11-27T01:18:40.049Z,99661.09
2022-11-27T01:21:38.442Z,99656.78
2022-11-27T01:24:36.272Z,99657.72
2022-11-27T01:27:27.157Z,99655.09
2022-11-27T01:30:28.965Z,99658.34
2022-11-27T01:33:51.832Z,99665.66
2022-11-27T01:36:43.563Z,99655.09
2022-11-27T01:39:33.092Z,99649.00
2022-11-27T01:42:23.475Z,99646.16
2022-11-27T01:45:22.937Z,99640.94
2022-11-27T01:48:13.621Z,99636.38
2022-11-27T01:51:09.545Z,99644.03
2022-11-27T01:54:04.248Z,99639.44
2022-11-27T01:56:57.993Z,99620.97
2022-11-27T01:59:46.497Z,99628.75
2022-11-27T02:02:34.528Z,99627.75
2022-11-27T02:05:25.947Z,99626.81
2022-11-27T02:08:16.401Z,99624.19
2022-11-27T02:11:13.995Z,99613.66
2022-11-27T02:14:11.444Z,99619.75
2022-11-27T02:17:06.539Z,99610.06
2022-11-27T02:20:18.996Z,99609.91
2022-11-27T02:23:28.249Z,99598.41
2022-11-27T02:26:41.868Z,99602.72
2022-11-27T02:29:34.377Z,99601.91
2022-11-27T02:32:28.256Z,99607.44
2022-11-27T02:35:20.879Z,99611.59
2022-11-27T02:38:15.796Z,99602.31
2022-11-27T02:41:11.555Z,99599.41
2022-11-27T02:44:01.773Z,99601.81
2022-11-27T02:46:52.659Z,99594.47
2022-11-27T02:49:43.107Z,99600.38
2022-11-27T02:52:31.888Z,99589.84
2022-11-27T02:55:27.381Z,99590.28
2022-11-27T02:58:22.733Z,99584.81
2022-11-27T03:01:12.470Z,99586.66
2022-11-27T03:04:04.940Z,99572.22
2022-11-27T03:06:57.061Z,99564.81
2022-11-27T03:09:48.940Z,99563.75
2022-11-27T03:12:39.172Z,99561.00
2022-11-27T03:15:29.717Z,99561.72
2022-11-27T03:18:25.347Z,99553.75
2022-11-27T03:21:28.597Z,99550.22
2022-11-27T03:24:19.365Z,99555.69
2022-11-27T03:27:07.599Z,99561.72
2022-11-27T03:29:58.858Z,99560.00
2022-11-27T03:32:48.861Z,99558.22
2022-11-27T03:35:36.624Z,99562.56
2022-11-27T03:38:26.361Z,99550.66
2022-11-27T03:41:24.154Z,99559.16
2022-11-27T03:44:24.240Z,99559.38
2022-11-27T03:47:22.535Z,99555.75
2022-11-27T03:50:22.951Z,99553.25
2022-11-27T03:53:20.743Z,99548.94
2022-11-27T03:56:18.307Z,99555.00
2022-11-27T03:59:11.331Z,99542.72
2022-11-27T04:01:59.530Z,99543.56
2022-11-27T04:04:49.007Z,99543.56
2022-11-27T04:07:36.745Z,99541.00
2022-11-27T04:10:24.844Z,99540.28
2022-11-27T04:13:14.248Z,99540.31
2022-11-27T04:16:05.581Z,99548.81
2022-11-27T04:18:53.569Z,99538.84
2022-11-27T04:21:41.627Z,99549.94
2022-11-27T04:24:31.936Z,99554.28
2022-11-27T04:27:19.999Z,99550.88
2022-11-27T04:30:10.069Z,99545.72
2022-11-27T04:32:57.681Z,99556.69
2022-11-27T04:35:45.703Z,99546.56
2022-11-27T04:38:33.735Z,99544.31
2022-11-27T04:41:21.667Z,99547.25
2022-11-27T04:44:12.832Z,99544.44
2022-11-27T04:47:01.770Z,99552.38
2022-11-27T04:49:51.132Z,99560.03
2022-11-27T04:52:39.182Z,99566.81
2022-11-27T04:55:31.512Z,99565.81
2022-11-27T04:58:19.320Z,99564.81
2022-11-27T05:01:09.015Z,99559.63
2022-11-27T05:03:58.735Z,99551.56
2022-11-27T05:06:48.707Z,99549.50
2022-11-27T05:09:36.790Z,99545.59
2022-11-27T05:12:24.462Z,99546.50
2022-11-27T05:15:12.545Z,99545.94
2022-11-27T05:18:00.425Z,99545.03
2022-11-27T05:20:56.632Z,99537.50
2022-11-27T05:23:45.996Z,99535.09
2022-11-27T05:26:35.959Z,99545.03
2022-11-27T05:29:25.124Z,99551.78
2022-11-27T05:32:12.916Z,99545.84
2022-11-27T05:35:05.831Z,99542.97
2022-11-27T05:37:55.089Z,99545.91
2022-11-27T05:40:42.763Z,99537.44
2022-11-27T05:43:30.833Z,99544.25
2022-11-27T05:46:21.167Z,99539.16
2022-11-27T05:49:09.729Z,99541.97
2022-11-27T05:51:59.029Z,99540.06
2022-11-27T05:55:01.009Z,99541.22
2022-11-27T05:57:51.243Z,99541.16
2022-11-27T06:00:43.825Z,99540.84
2022-11-27T06:03:33.495Z,99542.94
2022-11-27T06:06:22.222Z,99542.03
2022-11-27T06:09:13.277Z,99540.97
2022-11-27T06:12:02.775Z,99540.84
2022-11-27T06:14:50.469Z,99541.88
2022-11-27T06:17:41.733Z,99538.09
2022-11-27T06:20:29.715Z,99541.03
2022-11-27T06:23:17.725Z,99538.38
2022-11-27T06:26:16.836Z,99536.50
2022-11-27T06:29:11.555Z,99527.78
2022-11-27T06:31:59.332Z,99532.66
2022-11-27T06:34:47.300Z,99528.09
2022-11-27T06:37:35.346Z,99528.03
2022-11-27T06:40:23.582Z,99527.63
2022-11-27T06:43:12.504Z,99532.22
2022-11-27T06:46:03.266Z,99522.00
2022-11-27T06:48:53.584Z,99519.00
2022-11-27T06:51:41.408Z,99520.31
2022-11-27T06:54:29.543Z,99516.63
2022-11-27T06:57:17.465Z,99518.34
2022-11-27T07:00:06.808Z,99520.38
2022-11-27T07:02:59.812Z,99519.06
2022-11-27T07:05:55.089Z,99518.94
2022-11-27T07:08:45.710Z,99515.25
2022-11-27T07:11:49.200Z,99506.53
2022-11-27T07:14:40.080Z,99504.94
2022-11-27T07:17:28.604Z,99508.19
2022-11-27T07:20:19.847Z,99506.06
2022-11-27T07:23:11.703Z,99502.91
2022-11-27T07:26:05.894Z,99500.28
2022-11-27T07:28:54.772Z,99492.44
2022-11-27T07:31:42.667Z,99492.31
2022-11-27T07:34:30.354Z,99487.75
2022-11-27T07:37:19.787Z,99494.53
2022-11-27T07:40:15.066Z,99482.66
2022-11-27T07:43:07.238Z,99477.03
2022-11-27T07:45:59.300Z,99478.59
2022-11-27T07:48:54.158Z,99473.47
2022-11-27T07:52:03.496Z,99484.50
2022-11-27T07:54:52.508Z,99483.44
2022-11-27T07:57:42.837Z,99483.03
2022-11-27T08:00:35.793Z,99481.97
2022-11-27T08:03:24.091Z,99492.19
2022-11-27T08:06:18.776Z,99493.72
2022-11-27T08:09:06.440Z,99494.25
2022-11-27T08:11:55.791Z,99493.00
2022-11-27T08:15:15.451Z,99483.09
2022-11-27T08:18:05.946Z,99480.25
2022-11-27T08:21:00.973Z,99482.69
2022-11-27T08:23:53.536Z,99489.59
2022-11-27T08:26:41.410Z,99483.19
2022-11-27T08:29:34.055Z,99490.78
2022-11-27T08:32:22.307Z,99490.47
2022-11-27T08:35:13.766Z,99492.13
2022-11-27T08:38:06.036Z,99484.81
2022-11-27T08:41:07.024Z,99484.53
2022-11-27T08:44:05.594Z,99483.44
2022-11-27T08:46:58.044Z,99487.66
2022-11-27T08:49:57.089Z,99472.47
2022-11-27T08:52:58.098Z,99464.25
2022-11-27T08:55:47.583Z,99453.59
2022-11-27T08:58:37.945Z,99455.88
2022-11-27T09:01:34.896Z,99463.38
2022-11-27T09:04:30.397Z,99463.22
2022-11-27T09:07:22.735Z,99469.13
2022-11-27T09:10:12.871Z,99476.94
2022-11-27T09:13:03.926Z,99476.94
2022-11-27T09:16:00.849Z,99475.88
2022-11-27T09:18:50.069Z,99476.34
2022-11-27T09:21:42.474Z,99464.75
2022-11-27T09:24:30.660Z,99455.22
2022-11-27T09:27:18.410Z,99458.47
2022-11-27T09:30:13.092Z,99453.50
2022-11-27T09:33:04.168Z,99453.22
2022-11-27T09:35:51.898Z,99445.78
2022-11-27T09:38:42.412Z,99446.03
2022-11-27T09:41:44.904Z,99443.66
2022-11-27T09:44:43.426Z,99448.47
2022-11-27T09:47:41.917Z,99448.09
2022-11-27T09:50:38.262Z,99437.91
2022-11-27T09:53:34.338Z,99427.97
2022-11-27T09:56:29.170Z,99427.97
2022-11-27T09:59:27.586Z,99431.81
2022-11-27T10:02:40.228Z,99423.25
2022-11-27T10:06:01.548Z,99428.84
2022-11-27T10:09:00.371Z,99430.53
2022-11-27T10:11:58.972Z,99430.38
2022-11-27T10:15:04.068Z,99418.81
2022-11-27T10:18:03.870Z,99417.63
2022-11-27T10:21:02.280Z,99417.88
2022-11-27T10:24:02.975Z,99412.63
2022-11-27T10:26:58.694Z,99411.81
2022-11-27T10:29:56.960Z,99406.50
2022-11-27T10:32:55.092Z,99412.50
2022-11-27T10:35:47.695Z,99408.59
2022-11-27T10:38:48.990Z,99403.47
2022-11-27T10:41:49.717Z,99393.00
2022-11-27T10:44:43.699Z,99392.25
2022-11-27T10:47:34.638Z,99380.66
2022-11-27T10:50:22.706Z,99360.50
2022-11-27T10:53:19.714Z,99359.47
2022-11-27T10:56:43.741Z,99360.41
2022-11-27T10:59:40.943Z,99349.19
2022-11-27T11:02:34.070Z,99334.81
2022-11-27T11:05:50.459Z,99328.75
2022-11-27T11:08:41.451Z,99326.94
2022-11-27T11:11:29.621Z,99320.31
2022-11-27T11:14:20.355Z,99322.34
2022-11-27T11:17:18.544Z,99319.53
2022-11-27T11:20:16.733Z,99317.25
2022-11-27T11:23:08.149Z,99307.56
2022-11-27T11:25:59.826Z,99312.31
2022-11-27T11:28:51.898Z,99312.03
2022-11-27T11:31:42.178Z,99297.16
2022-11-27T11:34:34.018Z,99289.84
2022-11-27T11:37:25.606Z,99291.19
2022-11-27T11:40:25.820Z,99296.00
2022-11-27T11:43:26.443Z,99285.22
2022-11-27T11:46:26.347Z,99281.44
2022-11-27T11:49:24.162Z,99271.91
2022-11-27T11:52:22.347Z,99267.25
2022-11-27T11:55:20.304Z,99258.41
2022-11-27T11:58:35.230Z,99267.25
2022-11-27T12:01:46.977Z,99276.09
2022-11-27T12:05:06.251Z,99262.09
2022-11-27T12:08:17.977Z,99257.38
2022-11-27T12:11:13.681Z,99251.25
2022-11-27T12:14:14.396Z,99241.31
2022-11-27T12:17:14.687Z,99227.91
2022-11-27T12:20:19.475Z,99227.03
2022-11-27T12:23:35.041Z,99214.47
2022-11-27T12:26:33.619Z,99217.47
2022-11-27T12:29:45.706Z,99201.81
2022-11-27T12:32:53.032Z,99210.16
2022-11-27T12:35:45.958Z,99208.38
2022-11-27T12:39:09.890Z,99206.94
2022-11-27T12:42:01.627Z,99209.41
2022-11-27T12:44:57.800Z,99197.53
2022-11-27T12:47:49.010Z,99200.00
2022-11-27T12:50:42.418Z,99202.34
2022-11-27T12:53:35.887Z,99192.88
2022-11-27T12:56:31.947Z,99188.34
2022-11-27T12:59:27.273Z,99187.88
2022-11-27T13:02:28.728Z,99192.38
2022-11-27T13:05:20.460Z,99184.22
2022-11-27T13:08:14.954Z,99191.34
2022-11-27T13:11:07.873Z,99182.69
2022-11-27T13:14:01.614Z,99185.78
2022-11-27T13:16:53.981Z,99178.91
2022-11-27T13:19:47.159Z,99181.34
2022-11-27T13:22:37.480Z,99177.19
2022-11-27T13:25:27.058Z,99176.31
2022-11-27T13:28:26.289Z,99173.13
2022-11-27T13:31:23.575Z,99170.88
2022-11-27T13:34:19.330Z,99161.44
2022-11-27T13:37:23.852Z,99157.53
2022-11-27T13:40:23.111Z,99148.38
2022-11-27T13:43:24.006Z,99133.47
2022-11-27T13:46:19.527Z,99130.91
2022-11-27T13:49:08.056Z,99133.25
2022-11-27T13:52:11.805Z,99132.50
2022-11-27T13:55:00.239Z,99127.34
2022-11-27T13:57:53.768Z,99129.88
2022-11-27T14:00:43.285Z,99125.94
2022-11-27T14:03:36.508Z,99119.13
2022-11-27T14:06:27.185Z,99130.41
2022-11-27T14:09:15.583Z,99116.50
2022-11-27T14:12:14.941Z,99116.69
2022-11-27T14:15:10.337Z,99113.31
2022-11-27T14:18:09.451Z,99109.53
2022-11-27T14:21:02.559Z,99113.19
2022-11-27T14:23:51.438Z,99100.44
2022-11-27T14:26:43.085Z,99106.19
2022-11-27T14:29:31.810Z,99096.69
2022-11-27T14:32:21.994Z,99098.63
2022-11-27T14:35:22.019Z,99085.59
2022-11-27T14:38:16.245Z,99090.22
2022-11-27T14:41:12.762Z,99084.59
2022-11-27T14:44:05.109Z,99082.31
2022-11-27T14:46:54.062Z,99067.97
2022-11-27T14:49:42.533Z,99073.03
2022-11-27T14:52:30.786Z,99063.16
2022-11-27T14:55:21.050Z,99056.41
2022-11-27T14:58:15.822Z,99050.97
2022-11-27T15:01:06.670Z,99049.44
2022-11-27T15:03:59.322Z,99039.78
2022-11-27T15:06:48.205Z,99043.56
2022-11-27T15:09:37.096Z,99042.91
2022-11-27T15:12:31.859Z,99041.22
2022-11-27T15:15:23.543Z,99045.53
2022-11-27T15:18:22.848Z,99036.16
2022-11-27T15:21:19.361Z,99035.06
2022-11-27T15:24:07.459Z,99026.75
2022-11-27T15:26:55.530Z,99025.44
2022-11-27T15:29:59.784Z,99019.59
2022-11-27T15:32:52.277Z,99019.91
2022-11-27T15:35:40.241Z,99022.25
2022-11-27T15:38:28.411Z,99013.59
2022-11-27T15:41:25.597Z,99004.97
2022-11-27T15:44:13.393Z,99006.31
2022-11-27T15:47:04.825Z,99006.59
2022-11-27T15:49:52.546Z,99002.94
2022-11-27T15:52:40.450Z,99010.72
2022-11-27T15:55:28.402Z,99004.91
2022-11-27T15:58:17.718Z,98999.19
2022-11-27T16:01:07.247Z,99002.59
2022-11-27T16:03:56.849Z,98991.13
2022-11-27T16:06:44.591Z,98971.94
2022-11-27T16:09:32.483Z,98962.00
2022-11-27T16:12:20.405Z,98957.97
2022-11-27T16:15:10.610Z,98954.59
2022-11-27T16:17:58.376Z,98949.13
2022-11-27T16:20:47.314Z,98930.19
2022-11-27T16:23:35.949Z,98923.53
2022-11-27T16:26:34.011Z,98915.66
2022-11-27T16:29:22.106Z,98905.88
2022-11-27T16:32:10.097Z,98897.53
2022-11-27T16:34:58.149Z,98889.53
2022-11-27T16:37:47.445Z,98882.44
2022-11-27T16:40:35.443Z,98880.56
2022-11-27T16:43:23.512Z,98886.59
2022-11-27T16:46:13.148Z,98881.72
2022-11-27T16:49:01.434Z,98879.81
2022-11-27T16:51:49.346Z,98882.75
2022-11-27T16:54:38.970Z,98880.88
2022-11-27T16:57:26.975Z,98878.03
2022-11-27T17:00:16.386Z,98878.03
2022-11-27T17:03:04.556Z,98873.94
2022-11-27T17:05:52.448Z,98878.16
2022-11-27T17:08:41.200Z,98874.56
2022-11-27T17:11:33.551Z,98868.69
2022-11-27T17:14:21.250Z,98880.03
2022-11-27T17:17:09.321Z,98874.03
2022-11-27T17:20:00.337Z,98864.91
2022-11-27T17:22:49.481Z,98871.22
2022-11-27T17:25:37.295Z,98878.91
2022-11-27T17:28:27.827Z,98873.84
2022-11-27T17:31:19.053Z,98871.00
2022-11-27T17:34:08.308Z,98868.03
2022-11-27T17:36:57.567Z,98882.31
2022-11-27T17:39:54.919Z,98876.28
2022-11-27T17:42:47.322Z,98880.31
2022-11-27T17:45:36.501Z,98884.09
2022-11-27T17:48:25.061Z,98887.56
2022-11-27T17:51:13.329Z,98884.00
2022-11-27T17:54:01.898Z,98880.16
2022-11-27T17:56:51.582Z,98882.13
2022-11-27T17:59:40.309Z,98884.75
2022-11-27T18:02:30.111Z,98879.50
2022-11-27T18:05:18.036Z,98878.69
2022-11-27T18:08:06.778Z,98867.13
2022-11-27T18:11:07.672Z,98872.56
2022-11-27T18:13:56.322Z,98843.56
2022-11-27T18:16:44.028Z,98844.34
2022-11-27T18:19:33.489Z,98830.34
2022-11-27T18:22:21.201Z,98818.34
2022-11-27T18:25:09.619Z,98808.66
2022-11-27T18:27:57.982Z,98803.50
2022-11-27T18:30:46.000Z,98808.03
2022-11-27T18:33:34.158Z,98802.50
2022-11-27T18:36:23.352Z,98790.72
2022-11-27T18:39:11.226Z,98792.50
2022-11-27T18:41:59.290Z,98795.22
2022-11-27T18:44:47.576Z,98784.91
2022-11-27T18:47:35.257Z,98784.91
2022-11-27T18:50:29.338Z,98787.53
2022-11-27T18:53:18.808Z,98786.06
2022-11-27T18:56:09.057Z,98770.88
2022-11-27T18:58:57.291Z,98774.22
2022-11-27T19:01:45.336Z,98756.66
2022-11-27T19:04:35.486Z,98744.59
2022-11-27T19:07:25.189Z,98737.81
2022-11-27T19:10:14.470Z,98739.19
2022-11-27T19:13:02.481Z,98743.50
2022-11-27T19:15:51.035Z,98742.00
2022-11-27T19:19:05.045Z,98741.19
2022-11-27T19:21:52.979Z,98736.34
2022-11-27T19:24:40.896Z,98747.81
2022-11-27T19:27:30.188Z,98755.34
2022-11-27T19:30:18.531Z,98751.88
2022-11-27T19:33:06.634Z,98751.03
2022-11-27T19:35:59.592Z,98751.03
2022-11-27T19:38:47.750Z,98749.25
2022-11-27T19:41:37.709Z,98752.50
2022-11-27T19:44:33.012Z,98750.84
2022-11-27T19:47:20.555Z,98745.38
2022-11-27T19:50:09.343Z,98747.25
2022-11-27T19:52:58.602Z,98745.56
2022-11-27T19:55:53.558Z,98736.66
2022-11-27T19:58:41.670Z,98727.75
2022-11-27T20:01:30.971Z,98726.91
2022-11-27T20:04:19.547Z,98718.91
2022-11-27T20:07:08.212Z,98717.84
2022-11-27T20:09:56.281Z,98713.47
2022-11-27T20:12:44.402Z,98709.88
2022-11-27T20:15:33.085Z,98702.00
2022-11-27T20:18:22.117Z,98710.06
2022-11-27T20:21:12.089Z,98706.53
2022-11-27T20:23:59.833Z,98699.56
2022-11-27T20:26:47.962Z,98690.63
2022-11-27T20:29:35.704Z,98695.16
2022-11-27T20:32:23.455Z,98693.38
2022-11-27T20:35:12.798Z,98694.22
2022-11-27T20:38:00.466Z,98696.03
2022-11-27T20:40:48.509Z,98687.38
2022-11-27T20:43:36.996Z,98673.94
2022-11-27T20:46:25.266Z,98674.75
2022-11-27T20:49:13.270Z,98662.47
2022-11-27T20:52:04.004Z,98659.00
2022-11-27T20:54:52.012Z,98654.00
2022-11-27T20:57:39.849Z,98651.66
2022-11-27T21:00:27.942Z,98658.50
2022-11-27T21:03:15.650Z,98646.22
2022-11-27T21:06:03.774Z,98643.47
2022-11-27T21:08:53.169Z,98638.22
2022-11-27T21:11:41.478Z,98625.41
2022-11-27T21:14:29.168Z,98630.56
2022-11-27T21:17:17.235Z,98628.13
2022-11-27T21:20:06.739Z,98627.47
2022-11-27T21:22:55.065Z,98630.41
2022-11-27T21:25:44.232Z,98632.94
2022-11-27T21:28:33.267Z,98622.31
2022-11-27T21:31:23.699Z,98624.94
2022-11-27T21:34:12.941Z,98634.50
2022-11-27T21:37:00.777Z,98637.88
2022-11-27T21:39:48.897Z,98637.13
2022-11-27T21:42:41.642Z,98635.66
2022-11-27T21:45:57.787Z,98624.00
2022-11-27T21:48:46.086Z,98623.28
2022-11-27T21:51:34.047Z,98618.03
2022-11-27T21:54:22.001Z,98618.03
2022-11-27T21:57:09.991Z,98603.94
2022-11-27T21:59:59.341Z,98605.81
2022-11-27T22:02:47.499Z,98603.28
2022-11-27T22:05:35.408Z,98598.69
2022-11-27T22:08:23.358Z,98586.50
2022-11-27T22:11:13.370Z,98586.50
2022-11-27T22:14:03.497Z,98574.28
2022-11-27T22:16:52.986Z,98572.63
2022-11-27T22:19:42.421Z,98567.38
2022-11-27T22:22:31.464Z,98564.53
2022-11-27T22:25:19.170Z,98555.91
2022-11-27T22:28:07.096Z,98548.25
2022-11-27T22:30:54.902Z,98549.94
2022-11-27T22:33:45.221Z,98552.03
2022-11-27T22:36:34.472Z,98544.47
2022-11-27T22:39:22.714Z,98549.72
2022-11-27T22:42:11.577Z,98561.47
2022-11-27T22:44:59.288Z,98557.19
2022-11-27T22:47:47.655Z,98563.25
2022-11-27T22:50:36.862Z,98549.31
2022-11-27T22:53:24.558Z,98545.72
2022-11-27T22:56:13.788Z,98544.88
2022-11-27T22:59:30.617Z,98549.31
2022-11-27T23:02:10.498Z,98564.84
2022-11-27T23:04:58.432Z,98548.25
2022-11-27T23:07:47.783Z,98548.44
2022-11-27T23:10:35.410Z,98542.13
2022-11-27T23:13:23.547Z,98530.50
2022-11-27T23:16:12.468Z,98532.59
2022-11-27T23:19:00.369Z,98526.59
2022-11-27T23:21:48.313Z,98533.09
2022-11-27T23:24:37.715Z,98523.88
2022-11-27T23:27:25.556Z,98522.72
2022-11-27T23:30:14.093Z,98515.88
2022-11-27T23:33:02.002Z,98518.22
2022-11-27T23:35:50.077Z,98510.53
2022-11-27T23:38:41.030Z,98507.38
2022-11-27T23:41:31.869Z,98514.53
2022-11-27T23:44:20.291Z,98516.31
2022-11-27T23:47:07.936Z,98521.56
2022-11-27T23:49:55.947Z,98508.31
2022-11-27T23:52:44.031Z,98507.47
2022-11-27T23:55:33.738Z,98510.41
2022-11-27T23:58:22.863Z,98518.19
